world map with ANX marked

ANX - Airport

This information may not be accurate or current and is not valid for navigation or flight planning. No warranty of fitness for any purpose is made or implied.

flag of Norway

Donate via PayPal

Additional information is available on the NEW Great Circle Mapper

Location
City:  Andoya, Norway
Name:Andoya/Andenes
ICAO / IATA:ENAN / ANX

Details
Type:Airport (Aerodrome, Airfield)
Use:Military
Latitude:69°17'33"N (69.292500)
Longitude:16°08'39"E (16.144167)
Datum:WGS 1984
Elevation:43 ft (13 m)
Runways:2
Longest:8097 × 148 ft (2468 × 45 m)

Time
Timezone:UTC+1 (DST+4)
Local Time:

Weather
METAR:ENAN  190420Z AUTO 15016KT 9999 NCD 01/M03 Q1023
TAF:ENAN  182300Z 1900/1924 17012KT CAVOK= TAF ENBO 182300Z 1900/1924 10020KT 9999 FEW040 TEMPO 1900/1924 12020G30KT

Related Locations
Nearby:
Farthest:NZTB: 11663 mi / 18769 km
Terra Nova Bay [Mario Zucchelli Station], AQ

Find:

   beyond  
but within

Other Information
Maps:
Sources:

  


 


Great Circle Mapper   Great Circle Mapper
Great Circle Mapper FAQ   Great Circle Mapper FAQ
  Karl's Home Page
KLSē   KLSē Home
   GC on Facebook
Airlines of the World   Airlines of the World
Donate via PayPal


Copyright © 2004-2018, Karl L. Swartz. All rights reserved.
All trademarks mentioned herein belong to their respective owners.

Please see credits for attribution and copyright information.

Karl Swartz <karl@kls2.com>
  Powered by FreeBSD
Valid HTML 4.01!
Labeled with ICRA
hCard Microformat
Geo Microformat